Data for 12/30/2016

Time Sea-Level Adjusted Pressure Absolute Pressure Temperature Relative Humidity Dew Point   
(mb) (inHg) (mb) (inHg) (C) (F) (%) (C) (F)
00:05 1017 30.03 846 24.98 -0.3 31.4 38 -12.9 8.8
00:10 1017 30.03 846 24.98 -0.2 31.7 40 -12.2 10
00:15 1017 30.03 846 24.98 0.3 32.5 35 -13.4 7.9
00:20 1017 30.03 846 24.98 1.2 34.2 34 -12.8 8.9
00:25 1016 30 846 24.98 1.5 34.8 35 -12.4 9.6
00:30 1016 30 846 24.98 1.5 34.8 32 -13.3 8
00:35 1016 30 846 24.98 3.3 37.9 27 -14.2 6.5
00:40 1016 30 845 24.95 5.3 41.6 26 -12.8 8.9
00:45 1016 30 845 24.95 5.3 41.5 26 -12.6 9.2
00:50 1016 30 845 24.95 5.5 41.9 26 -12.5 9.4
00:55 1016 30 845 24.95 5.5 41.8 27 -12.3 9.8
01:00 1016 30 845 24.95 5.3 41.5 28 -12 10.4
01:05 1016 30 845 24.95 4.9 40.9 29 -11.7 10.9
01:10 1015 29.97 845 24.95 4.7 40.4 29 -11.7 10.9
01:15 1015 29.97 845 24.95 4.4 39.9 30 -11.7 10.9
01:20 1015 29.97 844 24.92 4.1 39.5 30 -11.8 10.7
01:25 1015 29.97 844 24.92 4.2 39.6 30 -11.7 10.9
01:30 1015 29.97 844 24.92 4.3 39.8 30 -11.6 11.1
01:35 1015 29.97 844 24.92 4.5 40 30 -11.7 11
01:40 1015 29.97 844 24.92 4.9 40.8 29 -11.6 11.2
01:45 1015 29.97 844 24.92 4.7 40.5 31 -11 12.2
01:50 1014 29.94 844 24.92 4.3 39.7 32 -11.1 12
01:55 1014 29.94 843 24.89 4.1 39.3 32 -11.1 12
02:00 1014 29.94 843 24.89 3.9 38.9 34 -10.7 12.7
02:05 1014 29.94 843 24.89 3.6 38.5 34 -11 12.2
02:10 1014 29.94 843 24.89 3.5 38.4 34 -11.1 12
02:15 1014 29.94 843 24.89 3.4 38.2 34 -10.9 12.4
02:20 1014 29.94 843 24.89 3.5 38.3 34 -11.1 12
02:25 1014 29.94 843 24.89 3.7 38.6 33 -11.2 11.8
02:30 1014 29.94 843 24.89 4.1 39.3 32 -11.3 11.6
02:35 1014 29.94 843 24.89 4.5 40.2 30 -11.5 11.3
02:40 1013 29.91 843 24.89 5.2 41.4 30 -11.1 12
02:45 1013 29.91 843 24.89 5.3 41.6 30 -11 12.2
02:50 1013 29.91 842 24.86 5.5 41.9 30 -11 12.3
02:55 1013 29.91 842 24.86 5.5 41.9 30 -10.9 12.4
03:00 1013 29.91 842 24.86 5.5 42 30 -10.7 12.8
03:05 1013 29.91 842 24.86 5.3 41.5 30 -10.8 12.5
03:10 1013 29.91 842 24.86 5.3 41.5 30 -10.8 12.5
03:15 1013 29.91 842 24.86 5.3 41.5 30 -11.1 12
03:20 1013 29.91 842 24.86 5.4 41.6 30 -11 12.3
03:25 1013 29.91 842 24.86 5.4 41.7 30 -10.8 12.5
03:30 1013 29.91 842 24.86 5.3 41.5 30 -10.9 12.3
03:35 1013 29.91 842 24.86 5.4 41.7 29 -11.1 12
03:40 1013 29.91 842 24.86 5.6 42.1 29 -10.9 12.4
03:45 1013 29.91 842 24.86 5.7 42.3 29 -11.2 11.9
03:50 1013 29.91 842 24.86 5.8 42.4 29 -10.8 12.6
03:55 1013 29.91 842 24.86 5.7 42.3 29 -10.8 12.5
04:00 1013 29.91 842 24.86 5.8 42.4 30 -10.7 12.8
04:05 1012 29.88 842 24.86 5.7 42.3 29 -10.9 12.3
04:10 1012 29.88 842 24.86 5.9 42.6 30 -10.6 13
04:15 1012 29.88 841 24.83 6 42.7 29 -10.8 12.6
04:20 1012 29.88 841 24.83 6.2 43.2 29 -10.6 13
04:25 1012 29.88 841 24.83 6.4 43.5 28 -10.9 12.5
04:30 1012 29.88 841 24.83 6.5 43.7 29 -10.3 13.5
04:35 1012 29.88 841 24.83 6.4 43.5 29 -10.3 13.4
04:40 1012 29.88 841 24.83 6.5 43.8 28 -10.5 13
04:45 1012 29.88 841 24.83 6.8 44.3 28 -10.3 13.5
04:50 1012 29.88 841 24.83 6.9 44.5 28 -10.2 13.6
04:55 1012 29.88 841 24.83 7.2 45 28 -10 14
05:00 1012 29.88 841 24.83 7.1 44.9 27 -10.8 12.6
05:05 1012 29.88 841 24.83 7.5 45.5 27 -10.1 13.8
05:10 1012 29.88 841 24.83 7.3 45.2 28 -10 14
05:15 1011 29.85 841 24.83 7.2 45 28 -10.1 13.9
05:20 1011 29.85 841 24.83 7.3 45.1 28 -10.1 13.8
05:25 1011 29.85 841 24.83 7.3 45.1 28 -9.9 14.2
05:30 1011 29.85 840 24.81 7.2 44.9 29 -9.6 14.7
05:35 1011 29.85 840 24.81 7.2 45 28 -10 14.1
05:40 1011 29.85 840 24.81 7.2 44.9 29 -9.6 14.7
05:45 1011 29.85 840 24.81 7 44.6 30 -9.6 14.7
05:50 1011 29.85 840 24.81 7 44.7 29 -9.8 14.3
05:55 1011 29.85 840 24.81 7 44.6 30 -9.6 14.7
06:00 1011 29.85 840 24.81 6.8 44.3 30 -9.5 14.9
06:05 1011 29.85 840 24.81 6.7 44.1 30 -9.6 14.7
06:10 1011 29.85 840 24.81 6.9 44.4 30 -9.7 14.5
06:15 1011 29.85 840 24.81 7 44.6 29 -9.8 14.4
06:20 1011 29.85 840 24.81 7 44.5 30 -9.6 14.6
06:25 1011 29.85 840 24.81 6.8 44.3 30 -9.5 14.9
06:30 1011 29.85 840 24.81 6.6 43.9 31 -9.4 15
06:35 1011 29.85 840 24.81 6.7 44 30 -9.6 14.7
06:40 1011 29.85 840 24.81 6.7 44.1 31 -9.3 15.2
06:45 1011 29.85 840 24.81 6.6 43.8 31 -9.4 15.2
06:50 1011 29.85 840 24.81 6.3 43.4 33 -8.7 16.4
06:55 1011 29.85 840 24.81 6 42.8 33 -9.2 15.5
07:00 1010 29.83 840 24.81 6.1 43 32 -9.2 15.4
07:05 1010 29.83 840 24.81 6.2 43.2 32 -9.2 15.5
07:10 1010 29.83 840 24.81 6.2 43.1 33 -9 15.9
07:15 1010 29.83 839 24.78 5.9 42.6 34 -8.8 16.1
07:20 1010 29.83 839 24.78 5.8 42.5 33 -9.3 15.2
07:25 1010 29.83 839 24.78 5.9 42.6 34 -9 15.8
07:30 1010 29.83 839 24.78 5.8 42.5 33 -9.4 15.1
07:35 1010 29.83 839 24.78 6 42.8 32 -9.3 15.2
07:40 1010 29.83 839 24.78 5.9 42.6 33 -9.3 15.3
07:45 1010 29.83 839 24.78 5.9 42.6 33 -9.2 15.4
07:50 1010 29.83 839 24.78 5.7 42.3 33 -9.4 15
07:55 1010 29.83 839 24.78 5.7 42.3 33 -9.3 15.2
08:00 1010 29.83 839 24.78 5.8 42.5 31 -9.8 14.3
08:05 1010 29.83 839 24.78 6 42.8 32 -9.3 15.3
08:10 1010 29.83 839 24.78 5.9 42.5 32 -9.5 14.9
08:15 1010 29.83 839 24.78 5.8 42.5 32 -9.8 14.4
08:20 1010 29.83 839 24.78 5.8 42.5 33 -9.4 15
08:25 1010 29.83 839 24.78 5.7 42.3 33 -9.4 15.1
08:30 1010 29.83 839 24.78 5.7 42.3 32 -9.9 14.2
08:35 1010 29.83 839 24.78 5.7 42.3 32 -9.6 14.7
08:40 1010 29.83 839 24.78 5.7 42.2 32 -9.7 14.5
08:45 1010 29.83 839 24.78 5.6 42.2 33 -9.2 15.4
08:50 1010 29.83 839 24.78 5.4 41.7 36 -8.7 16.3
08:55 1010 29.83 839 24.78 5 41 37 -8.3 17
09:00 1010 29.83 839 24.78 4.7 40.5 37 -8.6 16.5
09:05 1010 29.83 840 24.81 4.7 40.4 37 -8.7 16.4
09:10 1010 29.83 840 24.81 4.8 40.6 37 -8.7 16.3
09:15 1010 29.83 840 24.81 4.8 40.6 39 -8.1 17.5
09:20 1010 29.83 840 24.81 4.5 40.2 39 -8.3 17
09:25 1010 29.83 840 24.81 4.5 40.1 38 -8.6 16.4
09:30 1010 29.83 840 24.81 4.7 40.4 40 -8 17.7
09:35 1011 29.85 840 24.81 3.9 38.9 46 -6.8 19.7
09:40 1011 29.85 840 24.81 2.8 37.1 47 -7.3 18.8
09:45 1011 29.85 840 24.81 2.5 36.5 48 -7.4 18.8
09:50 1011 29.85 840 24.81 2.5 36.6 45 -8.1 17.5
09:55 1011 29.85 840 24.81 3 37.3 44 -8.1 17.3
10:00 1011 29.85 840 24.81 3.1 37.7 43 -8.4 16.9
10:05 1011 29.85 840 24.81 3.3 37.9 44 -7.9 17.8
10:10 1011 29.85 840 24.81 3.1 37.6 44 -8.1 17.5
10:15 1011 29.85 840 24.81 3.1 37.5 45 -7.8 18
10:20 1011 29.85 840 24.81 2.8 37 46 -7.7 18.2
10:25 1011 29.85 840 24.81 2.5 36.4 47 -7.7 18.1
10:30 1011 29.85 840 24.81 2.4 36.3 48 -7.6 18.3
10:35 1011 29.85 840 24.81 2.4 36.3 49 -7.2 19
10:40 1011 29.85 841 24.83 2.4 36.3 53 -6.3 20.6
10:45 1011 29.85 841 24.83 2.2 36 55 -5.9 21.4
10:50 1011 29.85 841 24.83 2.1 35.8 56 -5.8 21.5
10:55 1011 29.85 841 24.83 2.2 36 56 -5.7 21.7
11:00 1012 29.88 841 24.83 2.4 36.3 57 -5.4 22.3
11:05 1012 29.88 841 24.83 2.2 36 58 -5.2 22.6
11:10 1012 29.88 841 24.83 2.2 35.9 59 -5.1 22.9
11:15 1012 29.88 841 24.83 2.2 35.9 60 -4.9 23.2
11:20 1012 29.88 841 24.83 2.1 35.7 60 -4.8 23.4
11:25 1012 29.88 841 24.83 2 35.6 61 -4.8 23.4
11:30 1012 29.88 841 24.83 2 35.6 61 -4.7 23.6
11:35 1012 29.88 841 24.83 2 35.5 62 -4.6 23.6
11:40 1012 29.88 841 24.83 1.9 35.4 61 -4.8 23.4
11:45 1012 29.88 841 24.83 1.8 35.3 62 -4.7 23.5
11:50 1012 29.88 841 24.83 1.8 35.2 62 -4.7 23.6
11:55 1012 29.88 841 24.83 1.7 35 62 -4.8 23.4
12:00 1012 29.88 841 24.83 1.6 34.8 63 -4.8 23.4
12:05 1012 29.88 841 24.83 1.6 34.8 63 -4.7 23.6
12:10 1012 29.88 842 24.86 1.6 34.9 64 -4.5 23.8
12:15 1012 29.88 842 24.86 1.5 34.7 66 -4.2 24.4
12:20 1012 29.88 842 24.86 1.2 34.2 71 -3.4 25.8
12:25 1012 29.88 842 24.86 0.6 33.1 78 -2.9 26.8
12:30 1012 29.88 842 24.86 0.3 32.5 78 -3.1 26.5
12:35 1013 29.91 842 24.86 0.1 32.2 80 -2.9 26.8
12:40 1013 29.91 842 24.86 -0.1 31.7 82 -2.8 27
12:45 1013 29.91 842 24.86 -0.1 31.8 82 -2.8 26.9
12:50 1013 29.91 842 24.86 -0.3 31.5 83 -2.8 26.9
12:55 1013 29.91 842 24.86 -0.4 31.3 83 -2.9 26.8
13:00 1013 29.91 842 24.86 -0.4 31.2 83 -3 26.7
13:05 1013 29.91 842 24.86 -0.5 31.1 84 -2.9 26.8
13:10 1013 29.91 842 24.86 -0.5 31.1 84 -2.9 26.7
13:15 1013 29.91 842 24.86 -0.6 30.9 85 -2.9 26.8
13:20 1013 29.91 842 24.86 -0.6 30.9 85 -2.9 26.8
13:25 1013 29.91 842 24.86 -0.7 30.8 86 -2.7 27.2
13:30 1013 29.91 842 24.86 -0.7 30.7 87 -2.6 27.4
13:35 1012 29.88 842 24.86 -0.6 30.9 87 -2.6 27.4
13:40 1012 29.88 842 24.86 -0.6 30.9 86 -2.7 27.2
13:45 1012 29.88 842 24.86 -0.7 30.7 86 -2.7 27.1
13:50 1012 29.88 842 24.86 -0.8 30.6 87 -2.7 27.1
13:55 1012 29.88 842 24.86 -0.8 30.6 87 -2.6 27.3
14:00 1012 29.88 842 24.86 -1 30.1 90 -2.5 27.5
14:05 1012 29.88 842 24.86 -1 30.3 90 -2.4 27.7
14:10 1012 29.88 842 24.86 -0.9 30.4 90 -2.3 27.8
14:15 1012 29.88 842 24.86 -0.8 30.5 90 -2.3 27.9
14:20 1012 29.88 842 24.86 -0.8 30.6 89 -2.4 27.7
14:25 1012 29.88 842 24.86 -0.8 30.5 89 -2.4 27.6
14:30 1012 29.88 841 24.83 -1.1 30.1 88 -2.8 26.9
14:35 1012 29.88 841 24.83 -1.5 29.3 89 -3 26.5
14:40 1012 29.88 841 24.83 -1.8 28.7 90 -3.2 26.2
14:45 1012 29.88 841 24.83 -1.9 28.6 91 -3.1 26.4
14:50 1012 29.88 842 24.86 -1.8 28.7 90 -3.2 26.2
14:55 1012 29.88 842 24.86 -2 28.5 90 -3.4 26
15:00 1012 29.88 842 24.86 -2.1 28.2 91 -3.3 26.1
15:05 1012 29.88 842 24.86 -2 28.5 91 -3.3 26
15:10 1012 29.88 842 24.86 -2 28.4 91 -3.3 26.1
15:15 1012 29.88 842 24.86 -2 28.3 91 -3.3 26.1
15:20 1012 29.88 842 24.86 -2.1 28.3 92 -3.2 26.2
15:25 1012 29.88 842 24.86 -2 28.4 92 -3.2 26.3
15:30 1012 29.88 842 24.86 -2 28.4 92 -3.2 26.3
15:35 1012 29.88 842 24.86 -2 28.5 92 -3.1 26.4
15:40 1012 29.88 842 24.86 -1.8 28.7 92 -3 26.7
15:45 1013 29.91 842 24.86 -1.7 28.9 92 -2.9 26.8
15:50 1013 29.91 842 24.86 -1.8 28.8 92 -3 26.7
15:55 1013 29.91 842 24.86 -1.8 28.8 92 -2.9 26.7
16:00 1013 29.91 842 24.86 -1.7 28.9 92 -2.9 26.8
16:05 1013 29.91 842 24.86 -1.6 29.1 92 -2.8 26.9
16:10 1013 29.91 842 24.86 -1.6 29.1 92 -2.8 27
16:15 1013 29.91 842 24.86 -1.5 29.2 91 -2.8 27
16:20 1013 29.91 842 24.86 -1.6 29.2 91 -2.8 26.9
16:25 1013 29.91 842 24.86 -1.6 29.2 91 -2.8 26.9
16:30 1013 29.91 842 24.86 -1.6 29.2 91 -2.9 26.8
16:35 1013 29.91 842 24.86 -1.6 29.1 90 -3 26.6
16:40 1013 29.91 842 24.86 -1.6 29 90 -3 26.6
16:45 1013 29.91 842 24.86 -1.7 28.9 90 -3.1 26.5
16:50 1013 29.91 842 24.86 -1.8 28.8 90 -3.2 26.3
16:55 1013 29.91 842 24.86 -1.9 28.6 90 -3.3 26.1
17:00 1013 29.91 842 24.86 -2 28.4 91 -3.4 25.9
17:05 1013 29.91 842 24.86 -2.1 28.3 91 -3.4 25.9
17:10 1013 29.91 842 24.86 -2.1 28.3 91 -3.3 26
17:15 1013 29.91 842 24.86 -2.1 28.3 91 -3.3 26
17:20 1013 29.91 842 24.86 -2.1 28.2 91 -3.4 25.9
17:25 1013 29.91 842 24.86 -2.1 28.2 91 -3.4 26
17:30 1013 29.91 842 24.86 -2.2 28.1 92 -3.4 25.9
17:35 1013 29.91 842 24.86 -2.2 28 91 -3.4 25.8
17:40 1013 29.91 842 24.86 -2.4 27.6 91 -3.6 25.4
17:45 1013 29.91 842 24.86 -2.5 27.5 92 -3.7 25.4
17:50 1013 29.91 843 24.89 -2.6 27.3 91 -3.9 25
17:55 1013 29.91 843 24.89 -2.6 27.2 90 -4 24.8
18:00 1013 29.91 843 24.89 -2.7 27.1 91 -4.1 24.7
18:05 1013 29.91 843 24.89 -2.8 27 90 -4.1 24.6
18:10 1013 29.91 843 24.89 -2.9 26.7 91 -4.3 24.3
18:15 1013 29.91 843 24.89 -3.1 26.5 91 -4.4 24.1
18:20 1013 29.91 843 24.89 -3.1 26.5 90 -4.5 23.9
18:25 1013 29.91 843 24.89 -3.1 26.4 89 -4.6 23.7
18:30 1014 29.94 843 24.89 -3.2 26.3 88 -4.9 23.2
18:35 1014 29.94 843 24.89 -3.1 26.4 87 -4.9 23.2
18:40 1013 29.91 843 24.89 -3 26.7 86 -5 23.1
18:45 1014 29.94 843 24.89 -2.9 26.7 85 -5 22.9
18:50 1014 29.94 843 24.89 -2.9 26.7 85 -5.1 22.8
18:55 1014 29.94 843 24.89 -3 26.6 84 -5.3 22.5
19:00 1014 29.94 843 24.89 -3 26.6 83 -5.5 22
19:05 1014 29.94 843 24.89 -2.9 26.8 82 -5.6 21.9
19:10 1014 29.94 843 24.89 -2.9 26.9 82 -5.6 21.9
19:15 1014 29.94 843 24.89 -2.9 26.7 81 -5.7 21.7
19:20 1014 29.94 843 24.89 -3 26.7 81 -5.8 21.6
19:25 1014 29.94 843 24.89 -3 26.7 79 -6.1 21.1
19:30 1014 29.94 843 24.89 -2.9 26.7 74 -6.9 19.6
19:35 1014 29.94 843 24.89 -2.9 26.8 72 -7.3 18.9
19:40 1014 29.94 843 24.89 -2.9 26.8 72 -7.3 18.8
19:45 1014 29.94 843 24.89 -3 26.6 71 -7.5 18.5
19:50 1014 29.94 843 24.89 -3.1 26.4 70 -7.9 17.9
19:55 1014 29.94 843 24.89 -3.2 26.2 68 -8.3 17
20:00 1014 29.94 843 24.89 -3.3 26 67 -8.5 16.6
20:05 1014 29.94 843 24.89 -3.3 26 66 -8.9 16
20:10 1014 29.94 843 24.89 -3.3 26 66 -8.9 16
20:15 1014 29.94 843 24.89 -3.4 26 64 -9.2 15.4
20:20 1014 29.94 843 24.89 -3.4 25.8 64 -9.4 15.1
20:25 1014 29.94 843 24.89 -3.4 25.9 63 -9.4 15.1
20:30 1014 29.94 843 24.89 -3.4 25.9 62 -9.7 14.5
20:35 1014 29.94 843 24.89 -3.4 26 63 -9.5 15
20:40 1014 29.94 843 24.89 -3.3 26 60 -10 13.9
20:45 1014 29.94 843 24.89 -3.3 26.1 58 -10.4 13.2
20:50 1014 29.94 843 24.89 -3.3 26 58 -10.4 13.2
20:55 1014 29.94 843 24.89 -3.5 25.8 59 -10.3 13.5
21:00 1014 29.94 843 24.89 -3.7 25.4 59 -10.5 13.1
21:05 1014 29.94 843 24.89 -3.9 25 59 -10.7 12.8
21:10 1014 29.94 843 24.89 -4.1 24.7 60 -10.8 12.6
21:15 1014 29.94 843 24.89 -4.2 24.4 59 -11 12.2
21:20 1014 29.94 843 24.89 -4.3 24.3 59 -11 12.1
21:25 1014 29.94 843 24.89 -4.4 24.1 60 -11.1 12.1
21:30 1014 29.94 843 24.89 -4.5 23.9 60 -11.1 12
21:35 1014 29.94 844 24.92 -4.5 23.8 60 -11.2 11.8
21:40 1014 29.94 844 24.92 -4.5 23.9 59 -11.3 11.7
21:45 1015 29.97 844 24.92 -4.4 24 60 -11.1 12
21:50 1014 29.94 844 24.92 -4.4 24.1 58 -11.4 11.4
21:55 1014 29.94 844 24.92 -4.4 24.1 58 -11.5 11.3
22:00 1014 29.94 844 24.92 -4.4 24.2 58 -11.5 11.4
22:05 1014 29.94 844 24.92 -4.5 23.9 59 -11.3 11.6
22:10 1014 29.94 843 24.89 -4.7 23.5 64 -10.6 12.9
22:15 1014 29.94 843 24.89 -4.8 23.4 69 -9.6 14.8
22:20 1014 29.94 843 24.89 -4.6 23.7 67 -9.9 14.1
22:25 1014 29.94 843 24.89 -4.6 23.7 65 -10.3 13.4
22:30 1014 29.94 843 24.89 -5 23.1 65 -10.6 13
22:35 1014 29.94 843 24.89 -5.3 22.4 65 -10.9 12.4
22:40 1014 29.94 843 24.89 -5.5 22.1 63 -11.5 11.3
22:45 1014 29.94 843 24.89 -5.6 22 61 -12 10.4
22:50 1014 29.94 843 24.89 -5.5 22.1 61 -12 10.5
22:55 1014 29.94 843 24.89 -5.7 21.7 60 -12.2 10.1
23:00 1014 29.94 843 24.89 -5.7 21.7 60 -12.3 9.9
23:05 1014 29.94 843 24.89 -5.6 22 59 -12.4 9.7
23:10 1014 29.94 843 24.89 -5.4 22.3 58 -12.4 9.6
23:15 1014 29.94 843 24.89 -5.6 22 58 -12.6 9.3
23:20 1014 29.94 843 24.89 -5.5 22.2 56 -12.9 8.8
23:25 1014 29.94 843 24.89 -5.4 22.2 57 -12.7 9.2
23:30 1014 29.94 843 24.89 -5.6 21.9 56 -13.1 8.4
23:35 1014 29.94 843 24.89 -5.7 21.7 55 -13.3 8
23:40 1014 29.94 843 24.89 -5.7 21.7 54 -13.5 7.7
23:45 1014 29.94 843 24.89 -5.8 21.5 56 -13.4 7.9
23:50 1014 29.94 843 24.89 -6 21.2 57 -13.3 8.1
23:55 1014 29.94 843 24.89 -6.2 20.9 57 -13.5 7.8
24:00 1014 29.94 843 24.89 -6 21.2 56 -13.5 7.7